sensor_id;sensor_type;location;lat;lon;timestamp;temperature;humidity
45843;DHT22;31563;51.744;8.252;2024-02-23T00:02:27;16.80;68.60
45843;DHT22;31563;51.744;8.252;2024-02-23T00:04:55;16.80;67.60
45843;DHT22;31563;51.744;8.252;2024-02-23T00:07:23;16.80;68.10
45843;DHT22;31563;51.744;8.252;2024-02-23T00:09:51;16.80;67.00
45843;DHT22;31563;51.744;8.252;2024-02-23T00:12:20;16.80;66.50
45843;DHT22;31563;51.744;8.252;2024-02-23T00:14:49;16.70;66.00
45843;DHT22;31563;51.744;8.252;2024-02-23T00:17:17;16.80;73.10
45843;DHT22;31563;51.744;8.252;2024-02-23T00:19:46;16.90;68.60
45843;DHT22;31563;51.744;8.252;2024-02-23T00:22:14;16.90;69.20
45843;DHT22;31563;51.744;8.252;2024-02-23T00:24:42;16.80;69.80
45843;DHT22;31563;51.744;8.252;2024-02-23T00:27:10;16.80;69.60
45843;DHT22;31563;51.744;8.252;2024-02-23T00:29:40;16.80;69.50
45843;DHT22;31563;51.744;8.252;2024-02-23T00:32:08;16.80;70.40
45843;DHT22;31563;51.744;8.252;2024-02-23T00:34:36;16.70;69.30
45843;DHT22;31563;51.744;8.252;2024-02-23T00:37:05;16.80;69.70
45843;DHT22;31563;51.744;8.252;2024-02-23T00:39:34;16.70;69.40
45843;DHT22;31563;51.744;8.252;2024-02-23T00:42:04;16.70;69.50
45843;DHT22;31563;51.744;8.252;2024-02-23T00:44:32;16.70;69.40
45843;DHT22;31563;51.744;8.252;2024-02-23T00:47:02;16.60;69.40
45843;DHT22;31563;51.744;8.252;2024-02-23T00:49:31;16.60;70.30
45843;DHT22;31563;51.744;8.252;2024-02-23T00:51:59;16.60;69.10
45843;DHT22;31563;51.744;8.252;2024-02-23T00:54:27;16.50;69.20
45843;DHT22;31563;51.744;8.252;2024-02-23T00:56:55;16.50;69.20
45843;DHT22;31563;51.744;8.252;2024-02-23T00:59:23;16.40;69.50
45843;DHT22;31563;51.744;8.252;2024-02-23T01:01:51;16.40;69.50
45843;DHT22;31563;51.744;8.252;2024-02-23T01:04:21;16.40;69.50
45843;DHT22;31563;51.744;8.252;2024-02-23T01:06:49;16.40;69.40
45843;DHT22;31563;51.744;8.252;2024-02-23T01:09:17;16.30;69.40
45843;DHT22;31563;51.744;8.252;2024-02-23T01:11:47;16.40;70.30
45843;DHT22;31563;51.744;8.252;2024-02-23T01:14:15;16.30;69.00
45843;DHT22;31563;51.744;8.252;2024-02-23T01:16:44;16.30;69.70
45843;DHT22;31563;51.744;8.252;2024-02-23T01:19:12;16.30;69.30
45843;DHT22;31563;51.744;8.252;2024-02-23T01:21:41;16.30;69.40
45843;DHT22;31563;51.744;8.252;2024-02-23T01:24:09;16.30;69.50
45843;DHT22;31563;51.744;8.252;2024-02-23T01:26:37;16.30;69.50
45843;DHT22;31563;51.744;8.252;2024-02-23T01:29:09;16.30;69.40
45843;DHT22;31563;51.744;8.252;2024-02-23T01:31:37;16.30;69.20
45843;DHT22;31563;51.744;8.252;2024-02-23T01:34:05;16.30;70.00
45843;DHT22;31563;51.744;8.252;2024-02-23T01:36:33;16.30;69.00
45843;DHT22;31563;51.744;8.252;2024-02-23T01:39:02;16.30;69.40
45843;DHT22;31563;51.744;8.252;2024-02-23T01:41:30;16.20;69.00
45843;DHT22;31563;51.744;8.252;2024-02-23T01:43:59;16.20;69.10
45843;DHT22;31563;51.744;8.252;2024-02-23T01:46:27;16.20;68.80
45843;DHT22;31563;51.744;8.252;2024-02-23T01:48:56;16.20;69.40
45843;DHT22;31563;51.744;8.252;2024-02-23T01:51:24;16.10;69.00
45843;DHT22;31563;51.744;8.252;2024-02-23T01:53:52;16.10;69.10
45843;DHT22;31563;51.744;8.252;2024-02-23T01:56:22;16.10;69.30
45843;DHT22;31563;51.744;8.252;2024-02-23T01:58:50;16.10;69.20
45843;DHT22;31563;51.744;8.252;2024-02-23T02:01:20;16.00;69.50
45843;DHT22;31563;51.744;8.252;2024-02-23T02:03:48;16.00;69.40
45843;DHT22;31563;51.744;8.252;2024-02-23T02:06:16;16.00;69.50
45843;DHT22;31563;51.744;8.252;2024-02-23T02:08:44;16.00;70.00
45843;DHT22;31563;51.744;8.252;2024-02-23T02:11:13;16.00;69.70
45843;DHT22;31563;51.744;8.252;2024-02-23T02:13:43;16.00;69.70
45843;DHT22;31563;51.744;8.252;2024-02-23T02:16:11;16.00;69.70
45843;DHT22;31563;51.744;8.252;2024-02-23T02:18:39;16.00;69.20
45843;DHT22;31563;51.744;8.252;2024-02-23T02:21:07;16.00;69.60
45843;DHT22;31563;51.744;8.252;2024-02-23T02:23:36;16.00;69.20
45843;DHT22;31563;51.744;8.252;2024-02-23T02:26:04;16.00;69.90
45843;DHT22;31563;51.744;8.252;2024-02-23T02:28:32;15.90;69.20
45843;DHT22;31563;51.744;8.252;2024-02-23T02:31:03;16.00;69.00
45843;DHT22;31563;51.744;8.252;2024-02-23T02:33:31;16.00;69.30
45843;DHT22;31563;51.744;8.252;2024-02-23T02:35:59;15.90;69.40
45843;DHT22;31563;51.744;8.252;2024-02-23T02:38:27;15.90;68.70
45843;DHT22;31563;51.744;8.252;2024-02-23T02:40:55;15.90;68.90
45843;DHT22;31563;51.744;8.252;2024-02-23T02:43:24;15.90;69.10
45843;DHT22;31563;51.744;8.252;2024-02-23T02:45:52;15.90;69.40
45843;DHT22;31563;51.744;8.252;2024-02-23T02:48:21;15.90;69.00
45843;DHT22;31563;51.744;8.252;2024-02-23T02:50:50;15.90;69.20
45843;DHT22;31563;51.744;8.252;2024-02-23T02:53:20;15.80;69.20
45843;DHT22;31563;51.744;8.252;2024-02-23T02:55:48;15.80;69.30
45843;DHT22;31563;51.744;8.252;2024-02-23T02:58:16;15.80;69.20
45843;DHT22;31563;51.744;8.252;2024-02-23T03:00:44;15.80;69.20
45843;DHT22;31563;51.744;8.252;2024-02-23T03:03:12;15.70;69.20
45843;DHT22;31563;51.744;8.252;2024-02-23T03:05:42;15.80;69.20
45843;DHT22;31563;51.744;8.252;2024-02-23T03:08:10;15.80;69.20
45843;DHT22;31563;51.744;8.252;2024-02-23T03:10:38;15.80;69.40
45843;DHT22;31563;51.744;8.252;2024-02-23T03:13:06;15.80;69.30
45843;DHT22;31563;51.744;8.252;2024-02-23T03:15:34;15.80;69.40
45843;DHT22;31563;51.744;8.252;2024-02-23T03:18:02;15.80;69.20
45843;DHT22;31563;51.744;8.252;2024-02-23T03:20:30;15.80;69.10
45843;DHT22;31563;51.744;8.252;2024-02-23T03:23:00;15.80;69.20
45843;DHT22;31563;51.744;8.252;2024-02-23T03:25:30;15.90;69.20
45843;DHT22;31563;51.744;8.252;2024-02-23T03:27:58;15.90;69.20
45843;DHT22;31563;51.744;8.252;2024-02-23T03:30:27;15.90;69.20
45843;DHT22;31563;51.744;8.252;2024-02-23T03:32:55;15.90;68.60
45843;DHT22;31563;51.744;8.252;2024-02-23T03:35:23;15.80;69.50
45843;DHT22;31563;51.744;8.252;2024-02-23T03:37:51;15.80;68.80
45843;DHT22;31563;51.744;8.252;2024-02-23T03:40:20;15.80;69.00
45843;DHT22;31563;51.744;8.252;2024-02-23T03:42:48;15.80;68.90
45843;DHT22;31563;51.744;8.252;2024-02-23T03:45:16;15.80;68.80
45843;DHT22;31563;51.744;8.252;2024-02-23T03:47:44;15.80;68.80
45843;DHT22;31563;51.744;8.252;2024-02-23T03:50:13;15.80;68.50
45843;DHT22;31563;51.744;8.252;2024-02-23T03:52:41;15.80;68.50
45843;DHT22;31563;51.744;8.252;2024-02-23T03:55:09;15.80;68.50
45843;DHT22;31563;51.744;8.252;2024-02-23T03:57:38;15.80;68.70
45843;DHT22;31563;51.744;8.252;2024-02-23T04:00:08;15.80;68.80
45843;DHT22;31563;51.744;8.252;2024-02-23T04:02:36;15.80;69.00
45843;DHT22;31563;51.744;8.252;2024-02-23T04:05:07;15.70;69.10
45843;DHT22;31563;51.744;8.252;2024-02-23T04:07:35;15.70;68.90
45843;DHT22;31563;51.744;8.252;2024-02-23T04:10:03;15.70;68.80
45843;DHT22;31563;51.744;8.252;2024-02-23T04:12:32;15.70;68.70
45843;DHT22;31563;51.744;8.252;2024-02-23T04:15:01;15.60;68.50
45843;DHT22;31563;51.744;8.252;2024-02-23T04:17:29;15.60;69.10
45843;DHT22;31563;51.744;8.252;2024-02-23T04:19:59;15.60;69.10
45843;DHT22;31563;51.744;8.252;2024-02-23T04:22:28;15.60;69.10
45843;DHT22;31563;51.744;8.252;2024-02-23T04:24:56;15.60;68.60
45843;DHT22;31563;51.744;8.252;2024-02-23T04:27:24;15.60;68.90
45843;DHT22;31563;51.744;8.252;2024-02-23T04:29:52;15.60;69.10
45843;DHT22;31563;51.744;8.252;2024-02-23T04:32:22;15.60;68.60
45843;DHT22;31563;51.744;8.252;2024-02-23T04:34:50;15.60;68.20
45843;DHT22;31563;51.744;8.252;2024-02-23T04:37:18;15.70;76.00
45843;DHT22;31563;51.744;8.252;2024-02-23T04:39:46;15.90;74.80
45843;DHT22;31563;51.744;8.252;2024-02-23T04:42:14;15.90;71.40
45843;DHT22;31563;51.744;8.252;2024-02-23T04:44:42;16.00;72.70
45843;DHT22;31563;51.744;8.252;2024-02-23T04:47:10;15.90;72.70
45843;DHT22;31563;51.744;8.252;2024-02-23T04:49:39;15.80;73.20
45843;DHT22;31563;51.744;8.252;2024-02-23T04:52:07;15.80;73.20
45843;DHT22;31563;51.744;8.252;2024-02-23T04:54:36;15.80;72.20
45843;DHT22;31563;51.744;8.252;2024-02-23T04:57:04;15.90;71.90
45843;DHT22;31563;51.744;8.252;2024-02-23T04:59:32;15.90;71.80
45843;DHT22;31563;51.744;8.252;2024-02-23T05:02:00;15.90;71.60
45843;DHT22;31563;51.744;8.252;2024-02-23T05:04:28;16.00;71.30
45843;DHT22;31563;51.744;8.252;2024-02-23T05:06:57;16.00;71.10
45843;DHT22;31563;51.744;8.252;2024-02-23T05:09:25;16.00;70.80
45843;DHT22;31563;51.744;8.252;2024-02-23T05:11:53;16.00;70.50
45843;DHT22;31563;51.744;8.252;2024-02-23T05:14:22;16.10;70.40
45843;DHT22;31563;51.744;8.252;2024-02-23T05:16:50;16.10;70.50
45843;DHT22;31563;51.744;8.252;2024-02-23T05:19:18;16.10;70.10
45843;DHT22;31563;51.744;8.252;2024-02-23T05:21:46;16.10;70.00
45843;DHT22;31563;51.744;8.252;2024-02-23T05:24:16;16.10;69.90
45843;DHT22;31563;51.744;8.252;2024-02-23T05:26:44;16.20;69.70
45843;DHT22;31563;51.744;8.252;2024-02-23T05:29:12;16.10;69.60
45843;DHT22;31563;51.744;8.252;2024-02-23T05:31:46;16.20;69.50
45843;DHT22;31563;51.744;8.252;2024-02-23T05:34:14;16.20;69.50
45843;DHT22;31563;51.744;8.252;2024-02-23T05:36:43;16.20;69.40
45843;DHT22;31563;51.744;8.252;2024-02-23T05:39:12;16.20;69.20
45843;DHT22;31563;51.744;8.252;2024-02-23T05:41:43;16.20;69.40
45843;DHT22;31563;51.744;8.252;2024-02-23T05:44:12;16.20;69.30
45843;DHT22;31563;51.744;8.252;2024-02-23T05:46:42;16.20;68.60
45843;DHT22;31563;51.744;8.252;2024-02-23T05:49:10;16.20;68.90
45843;DHT22;31563;51.744;8.252;2024-02-23T05:51:39;16.20;69.00
45843;DHT22;31563;51.744;8.252;2024-02-23T05:54:08;16.20;68.70
45843;DHT22;31563;51.744;8.252;2024-02-23T05:56:36;16.20;68.30
45843;DHT22;31563;51.744;8.252;2024-02-23T05:59:07;16.20;65.70
45843;DHT22;31563;51.744;8.252;2024-02-23T06:01:35;16.00;61.20
45843;DHT22;31563;51.744;8.252;2024-02-23T06:04:04;15.80;59.20
45843;DHT22;31563;51.744;8.252;2024-02-23T06:06:32;15.80;60.30
45843;DHT22;31563;51.744;8.252;2024-02-23T06:09:01;15.70;60.30
45843;DHT22;31563;51.744;8.252;2024-02-23T06:11:29;15.90;62.60
45843;DHT22;31563;51.744;8.252;2024-02-23T06:13:57;16.00;58.40
45843;DHT22;31563;51.744;8.252;2024-02-23T06:16:27;16.00;57.50
45843;DHT22;31563;51.744;8.252;2024-02-23T06:18:55;16.00;59.00
45843;DHT22;31563;51.744;8.252;2024-02-23T06:21:25;16.00;58.60
45843;DHT22;31563;51.744;8.252;2024-02-23T06:23:53;16.00;58.80
45843;DHT22;31563;51.744;8.252;2024-02-23T06:26:21;16.10;58.20
45843;DHT22;31563;51.744;8.252;2024-02-23T06:28:49;16.10;59.10
45843;DHT22;31563;51.744;8.252;2024-02-23T06:31:17;16.10;58.80
45843;DHT22;31563;51.744;8.252;2024-02-23T06:33:47;16.10;58.90
45843;DHT22;31563;51.744;8.252;2024-02-23T06:36:16;16.20;58.70
45843;DHT22;31563;51.744;8.252;2024-02-23T06:38:45;16.20;58.90
45843;DHT22;31563;51.744;8.252;2024-02-23T06:41:13;16.20;59.10
45843;DHT22;31563;51.744;8.252;2024-02-23T06:43:41;16.20;60.20
45843;DHT22;31563;51.744;8.252;2024-02-23T06:46:10;16.30;60.70
45843;DHT22;31563;51.744;8.252;2024-02-23T06:48:38;16.20;57.70
45843;DHT22;31563;51.744;8.252;2024-02-23T06:51:08;16.10;57.00
45843;DHT22;31563;51.744;8.252;2024-02-23T06:53:36;16.00;53.80
45843;DHT22;31563;51.744;8.252;2024-02-23T06:56:05;16.10;55.90
45843;DHT22;31563;51.744;8.252;2024-02-23T06:58:34;16.10;55.50
45843;DHT22;31563;51.744;8.252;2024-02-23T07:01:02;16.20;55.90
45843;DHT22;31563;51.744;8.252;2024-02-23T07:03:32;16.10;56.00
45843;DHT22;31563;51.744;8.252;2024-02-23T07:06:02;16.10;56.30
45843;DHT22;31563;51.744;8.252;2024-02-23T07:08:31;16.20;56.80
45843;DHT22;31563;51.744;8.252;2024-02-23T07:11:00;16.20;56.80
45843;DHT22;31563;51.744;8.252;2024-02-23T07:13:28;16.30;56.90
45843;DHT22;31563;51.744;8.252;2024-02-23T07:15:56;16.30;56.70
45843;DHT22;31563;51.744;8.252;2024-02-23T07:18:25;16.40;56.90
45843;DHT22;31563;51.744;8.252;2024-02-23T07:20:53;16.40;54.90
45843;DHT22;31563;51.744;8.252;2024-02-23T07:23:21;16.40;54.60
45843;DHT22;31563;51.744;8.252;2024-02-23T07:25:51;16.40;53.10
45843;DHT22;31563;51.744;8.252;2024-02-23T07:28:20;16.40;51.90
45843;DHT22;31563;51.744;8.252;2024-02-23T07:30:50;16.30;50.90
45843;DHT22;31563;51.744;8.252;2024-02-23T07:33:19;16.20;49.80
45843;DHT22;31563;51.744;8.252;2024-02-23T07:35:48;16.20;49.80
45843;DHT22;31563;51.744;8.252;2024-02-23T07:38:15;16.40;49.80
45843;DHT22;31563;51.744;8.252;2024-02-23T07:40:45;16.50;49.20
45843;DHT22;31563;51.744;8.252;2024-02-23T07:43:14;16.60;48.00
45843;DHT22;31563;51.744;8.252;2024-02-23T07:45:42;16.90;48.40
45843;DHT22;31563;51.744;8.252;2024-02-23T07:48:11;17.10;49.00
45843;DHT22;31563;51.744;8.252;2024-02-23T07:50:39;17.30;49.10
45843;DHT22;31563;51.744;8.252;2024-02-23T07:53:07;17.40;48.90
45843;DHT22;31563;51.744;8.252;2024-02-23T07:55:36;17.60;49.00
45843;DHT22;31563;51.744;8.252;2024-02-23T07:58:04;17.60;48.20
45843;DHT22;31563;51.744;8.252;2024-02-23T08:00:34;17.60;48.10
45843;DHT22;31563;51.744;8.252;2024-02-23T08:03:05;17.70;49.00
45843;DHT22;31563;51.744;8.252;2024-02-23T08:05:34;17.80;49.20
45843;DHT22;31563;51.744;8.252;2024-02-23T08:08:03;18.00;48.80
45843;DHT22;31563;51.744;8.252;2024-02-23T08:10:31;18.10;48.90
45843;DHT22;31563;51.744;8.252;2024-02-23T08:12:59;18.30;48.60
45843;DHT22;31563;51.744;8.252;2024-02-23T08:15:28;18.50;48.70
45843;DHT22;31563;51.744;8.252;2024-02-23T08:17:57;18.60;48.40
45843;DHT22;31563;51.744;8.252;2024-02-23T08:20:25;18.70;48.00
45843;DHT22;31563;51.744;8.252;2024-02-23T08:22:54;18.90;47.90
45843;DHT22;31563;51.744;8.252;2024-02-23T08:25:22;19.00;47.90
45843;DHT22;31563;51.744;8.252;2024-02-23T08:27:50;19.20;47.60
45843;DHT22;31563;51.744;8.252;2024-02-23T08:30:18;19.40;47.50
45843;DHT22;31563;51.744;8.252;2024-02-23T08:32:47;19.60;46.80
45843;DHT22;31563;51.744;8.252;2024-02-23T08:35:17;19.90;47.00
45843;DHT22;31563;51.744;8.252;2024-02-23T08:37:45;20.20;46.30
45843;DHT22;31563;51.744;8.252;2024-02-23T08:40:13;20.10;42.30
45843;DHT22;31563;51.744;8.252;2024-02-23T08:42:41;19.40;41.90
45843;DHT22;31563;51.744;8.252;2024-02-23T08:45:10;18.80;41.80
45843;DHT22;31563;51.744;8.252;2024-02-23T08:47:41;18.50;44.40
45843;DHT22;31563;51.744;8.252;2024-02-23T08:50:09;18.60;45.00
45843;DHT22;31563;51.744;8.252;2024-02-23T08:52:39;18.80;45.70
45843;DHT22;31563;51.744;8.252;2024-02-23T08:55:07;18.90;45.70
45843;DHT22;31563;51.744;8.252;2024-02-23T08:57:36;18.90;45.80
45843;DHT22;31563;51.744;8.252;2024-02-23T09:00:04;18.90;45.90
45843;DHT22;31563;51.744;8.252;2024-02-23T09:02:33;18.80;46.30
45843;DHT22;31563;51.744;8.252;2024-02-23T09:05:05;18.70;46.80
45843;DHT22;31563;51.744;8.252;2024-02-23T09:07:33;18.70;47.00
45843;DHT22;31563;51.744;8.252;2024-02-23T09:10:04;18.60;46.70
45843;DHT22;31563;51.744;8.252;2024-02-23T09:12:33;18.70;46.80
45843;DHT22;31563;51.744;8.252;2024-02-23T09:15:01;18.60;47.50
45843;DHT22;31563;51.744;8.252;2024-02-23T09:17:30;18.50;47.90
45843;DHT22;31563;51.744;8.252;2024-02-23T09:19:58;18.60;47.90
45843;DHT22;31563;51.744;8.252;2024-02-23T09:22:26;18.60;48.20
45843;DHT22;31563;51.744;8.252;2024-02-23T09:24:56;18.70;48.10
45843;DHT22;31563;51.744;8.252;2024-02-23T09:27:25;18.80;48.00
45843;DHT22;31563;51.744;8.252;2024-02-23T09:29:53;18.80;47.70
45843;DHT22;31563;51.744;8.252;2024-02-23T09:32:21;18.80;47.70
45843;DHT22;31563;51.744;8.252;2024-02-23T09:34:49;18.80;47.70
45843;DHT22;31563;51.744;8.252;2024-02-23T09:37:18;18.80;47.90
45843;DHT22;31563;51.744;8.252;2024-02-23T09:39:46;18.90;47.20
45843;DHT22;31563;51.744;8.252;2024-02-23T09:42:14;18.90;47.10
45843;DHT22;31563;51.744;8.252;2024-02-23T09:44:47;18.90;47.90
45843;DHT22;31563;51.744;8.252;2024-02-23T09:47:17;18.80;51.60
45843;DHT22;31563;51.744;8.252;2024-02-23T09:49:48;19.00;51.00
45843;DHT22;31563;51.744;8.252;2024-02-23T09:52:19;19.10;50.30
45843;DHT22;31563;51.744;8.252;2024-02-23T09:54:48;19.20;49.70
45843;DHT22;31563;51.744;8.252;2024-02-23T09:57:17;19.30;49.00
45843;DHT22;31563;51.744;8.252;2024-02-23T09:59:48;19.40;49.80
45843;DHT22;31563;51.744;8.252;2024-02-23T10:02:17;19.50;49.40
45843;DHT22;31563;51.744;8.252;2024-02-23T10:04:45;19.40;49.50
45843;DHT22;31563;51.744;8.252;2024-02-23T10:07:15;19.30;48.80
45843;DHT22;31563;51.744;8.252;2024-02-23T10:09:44;19.50;50.50
45843;DHT22;31563;51.744;8.252;2024-02-23T10:12:13;19.50;50.50
45843;DHT22;31563;51.744;8.252;2024-02-23T10:14:41;19.80;48.20
45843;DHT22;31563;51.744;8.252;2024-02-23T10:17:11;19.80;48.00
45843;DHT22;31563;51.744;8.252;2024-02-23T10:19:39;19.80;48.40
45843;DHT22;31563;51.744;8.252;2024-02-23T10:22:07;19.80;48.80
45843;DHT22;31563;51.744;8.252;2024-02-23T10:24:36;19.90;47.80
45843;DHT22;31563;51.744;8.252;2024-02-23T10:27:05;19.80;46.90
45843;DHT22;31563;51.744;8.252;2024-02-23T10:29:33;19.90;48.40
45843;DHT22;31563;51.744;8.252;2024-02-23T10:32:01;20.00;48.80
45843;DHT22;31563;51.744;8.252;2024-02-23T10:34:31;20.20;48.50
45843;DHT22;31563;51.744;8.252;2024-02-23T10:37:05;20.60;47.50
45843;DHT22;31563;51.744;8.252;2024-02-23T10:39:36;22.10;46.60
45843;DHT22;31563;51.744;8.252;2024-02-23T10:42:09;23.80;43.70
45843;DHT22;31563;51.744;8.252;2024-02-23T10:44:37;25.00;41.50
45843;DHT22;31563;51.744;8.252;2024-02-23T10:47:07;25.80;40.10
45843;DHT22;31563;51.744;8.252;2024-02-23T10:49:37;24.50;39.90
45843;DHT22;31563;51.744;8.252;2024-02-23T10:52:07;23.60;41.80
45843;DHT22;31563;51.744;8.252;2024-02-23T10:54:39;23.50;43.10
45843;DHT22;31563;51.744;8.252;2024-02-23T10:57:08;23.60;42.50
45843;DHT22;31563;51.744;8.252;2024-02-23T10:59:36;23.00;42.70
45843;DHT22;31563;51.744;8.252;2024-02-23T11:02:05;22.50;44.80
45843;DHT22;31563;51.744;8.252;2024-02-23T11:04:34;22.50;45.20
45843;DHT22;31563;51.744;8.252;2024-02-23T11:07:13;22.00;45.70
45843;DHT22;31563;51.744;8.252;2024-02-23T11:09:42;21.60;47.00
45843;DHT22;31563;51.744;8.252;2024-02-23T11:12:09;21.20;45.00
45843;DHT22;31563;51.744;8.252;2024-02-23T11:14:38;21.00;46.60
45843;DHT22;31563;51.744;8.252;2024-02-23T11:17:07;20.80;46.80
45843;DHT22;31563;51.744;8.252;2024-02-23T11:19:46;20.70;46.90
45843;DHT22;31563;51.744;8.252;2024-02-23T11:22:24;20.70;46.80
45843;DHT22;31563;51.744;8.252;2024-02-23T11:24:59;21.00;47.00
45843;DHT22;31563;51.744;8.252;2024-02-23T11:27:30;21.00;46.30
45843;DHT22;31563;51.744;8.252;2024-02-23T11:30:01;21.10;45.70
45843;DHT22;31563;51.744;8.252;2024-02-23T11:32:37;21.00;45.60
45843;DHT22;31563;51.744;8.252;2024-02-23T11:35:07;20.80;46.10
45843;DHT22;31563;51.744;8.252;2024-02-23T11:37:47;21.20;46.00
45843;DHT22;31563;51.744;8.252;2024-02-23T11:40:18;21.20;41.50
45843;DHT22;31563;51.744;8.252;2024-02-23T11:42:46;21.30;42.80
45843;DHT22;31563;51.744;8.252;2024-02-23T11:45:14;21.20;42.60
45843;DHT22;31563;51.744;8.252;2024-02-23T11:47:42;21.20;43.40
45843;DHT22;31563;51.744;8.252;2024-02-23T11:50:10;21.40;42.60
45843;DHT22;31563;51.744;8.252;2024-02-23T11:52:38;22.30;42.90
45843;DHT22;31563;51.744;8.252;2024-02-23T11:55:08;22.70;40.40
45843;DHT22;31563;51.744;8.252;2024-02-23T11:57:38;22.50;40.70
45843;DHT22;31563;51.744;8.252;2024-02-23T12:00:14;22.70;39.70
45843;DHT22;31563;51.744;8.252;2024-02-23T12:02:43;22.00;38.80
45843;DHT22;31563;51.744;8.252;2024-02-23T12:05:13;21.60;40.60
45843;DHT22;31563;51.744;8.252;2024-02-23T12:07:41;21.60;40.70
45843;DHT22;31563;51.744;8.252;2024-02-23T12:10:15;21.50;40.90
45843;DHT22;31563;51.744;8.252;2024-02-23T12:12:43;21.60;41.00
45843;DHT22;31563;51.744;8.252;2024-02-23T12:15:11;21.60;40.70
45843;DHT22;31563;51.744;8.252;2024-02-23T12:17:46;22.60;40.10
45843;DHT22;31563;51.744;8.252;2024-02-23T12:20:15;23.60;39.10
45843;DHT22;31563;51.744;8.252;2024-02-23T12:22:44;23.40;37.80
45843;DHT22;31563;51.744;8.252;2024-02-23T12:25:12;22.80;38.60
45843;DHT22;31563;51.744;8.252;2024-02-23T12:27:43;22.70;40.10
45843;DHT22;31563;51.744;8.252;2024-02-23T12:30:13;22.40;40.10
45843;DHT22;31563;51.744;8.252;2024-02-23T12:32:42;22.00;40.60
45843;DHT22;31563;51.744;8.252;2024-02-23T12:35:10;21.90;41.80
45843;DHT22;31563;51.744;8.252;2024-02-23T12:37:40;23.80;41.50
45843;DHT22;31563;51.744;8.252;2024-02-23T12:40:11;25.20;37.10
45843;DHT22;31563;51.744;8.252;2024-02-23T12:42:40;26.20;36.30
45843;DHT22;31563;51.744;8.252;2024-02-23T12:45:10;26.80;35.70
45843;DHT22;31563;51.744;8.252;2024-02-23T12:47:39;27.30;35.80
45843;DHT22;31563;51.744;8.252;2024-02-23T12:50:08;27.50;35.60
45843;DHT22;31563;51.744;8.252;2024-02-23T12:52:37;27.80;35.80
45843;DHT22;31563;51.744;8.252;2024-02-23T12:55:05;27.80;35.70
45843;DHT22;31563;51.744;8.252;2024-02-23T12:57:33;27.50;36.30
45843;DHT22;31563;51.744;8.252;2024-02-23T13:00:01;26.70;37.20
45843;DHT22;31563;51.744;8.252;2024-02-23T13:02:31;26.00;37.60
45843;DHT22;31563;51.744;8.252;2024-02-23T13:04:59;25.40;38.50
45843;DHT22;31563;51.744;8.252;2024-02-23T13:07:29;25.00;39.00
45843;DHT22;31563;51.744;8.252;2024-02-23T13:09:57;24.90;39.60
45843;DHT22;31563;51.744;8.252;2024-02-23T13:12:26;25.10;39.40
45843;DHT22;31563;51.744;8.252;2024-02-23T13:14:54;24.80;39.10
45843;DHT22;31563;51.744;8.252;2024-02-23T13:17:22;24.60;40.10
45843;DHT22;31563;51.744;8.252;2024-02-23T13:19:51;24.20;39.90
45843;DHT22;31563;51.744;8.252;2024-02-23T13:22:36;23.80;40.50
45843;DHT22;31563;51.744;8.252;2024-02-23T13:25:05;23.40;42.20
45843;DHT22;31563;51.744;8.252;2024-02-23T13:27:34;23.00;42.20
45843;DHT22;31563;51.744;8.252;2024-02-23T13:30:02;22.60;42.90
45843;DHT22;31563;51.744;8.252;2024-02-23T13:32:30;22.40;42.90
45843;DHT22;31563;51.744;8.252;2024-02-23T13:35:01;22.40;43.00
45843;DHT22;31563;51.744;8.252;2024-02-23T13:37:31;22.40;43.70
45843;DHT22;31563;51.744;8.252;2024-02-23T13:40:00;22.30;44.10
45843;DHT22;31563;51.744;8.252;2024-02-23T13:42:28;22.20;44.20
45843;DHT22;31563;51.744;8.252;2024-02-23T13:44:56;22.20;44.60
45843;DHT22;31563;51.744;8.252;2024-02-23T13:47:26;22.00;44.20
45843;DHT22;31563;51.744;8.252;2024-02-23T13:49:55;21.90;45.20
45843;DHT22;31563;51.744;8.252;2024-02-23T13:52:25;21.80;46.20
45843;DHT22;31563;51.744;8.252;2024-02-23T13:54:53;21.70;46.80
45843;DHT22;31563;51.744;8.252;2024-02-23T13:57:21;21.60;46.20
45843;DHT22;31563;51.744;8.252;2024-02-23T13:59:49;21.50;46.30
45843;DHT22;31563;51.744;8.252;2024-02-23T14:02:25;21.40;46.60
45843;DHT22;31563;51.744;8.252;2024-02-23T14:04:53;21.30;47.20
45843;DHT22;31563;51.744;8.252;2024-02-23T14:07:24;21.30;47.30
45843;DHT22;31563;51.744;8.252;2024-02-23T14:09:55;21.20;47.10
45843;DHT22;31563;51.744;8.252;2024-02-23T14:12:23;21.20;48.00
45843;DHT22;31563;51.744;8.252;2024-02-23T14:14:51;21.20;48.30
45843;DHT22;31563;51.744;8.252;2024-02-23T14:17:19;21.20;47.90
45843;DHT22;31563;51.744;8.252;2024-02-23T14:19:47;21.10;47.40
45843;DHT22;31563;51.744;8.252;2024-02-23T14:22:17;20.90;43.50
45843;DHT22;31563;51.744;8.252;2024-02-23T14:24:47;20.80;44.50
45843;DHT22;31563;51.744;8.252;2024-02-23T14:27:15;20.80;45.20
45843;DHT22;31563;51.744;8.252;2024-02-23T14:29:43;20.80;45.20
45843;DHT22;31563;51.744;8.252;2024-02-23T14:32:15;20.70;45.30
45843;DHT22;31563;51.744;8.252;2024-02-23T14:34:44;20.70;45.60
45843;DHT22;31563;51.744;8.252;2024-02-23T14:37:13;20.70;46.40
45843;DHT22;31563;51.744;8.252;2024-02-23T14:39:41;20.70;46.40
45843;DHT22;31563;51.744;8.252;2024-02-23T14:42:14;20.60;45.90
45843;DHT22;31563;51.744;8.252;2024-02-23T14:44:42;20.50;46.10
45843;DHT22;31563;51.744;8.252;2024-02-23T14:47:10;20.50;46.30
45843;DHT22;31563;51.744;8.252;2024-02-23T14:49:39;20.40;46.30
45843;DHT22;31563;51.744;8.252;2024-02-23T14:52:07;20.40;46.30
45843;DHT22;31563;51.744;8.252;2024-02-23T14:54:35;20.40;46.30
45843;DHT22;31563;51.744;8.252;2024-02-23T14:57:04;20.40;46.10
45843;DHT22;31563;51.744;8.252;2024-02-23T14:59:33;20.40;46.40
45843;DHT22;31563;51.744;8.252;2024-02-23T15:02:03;20.40;46.80
45843;DHT22;31563;51.744;8.252;2024-02-23T15:04:32;20.40;46.50
45843;DHT22;31563;51.744;8.252;2024-02-23T15:07:00;20.40;47.40
45843;DHT22;31563;51.744;8.252;2024-02-23T15:09:28;20.40;47.10
45843;DHT22;31563;51.744;8.252;2024-02-23T15:11:56;20.40;47.30
45843;DHT22;31563;51.744;8.252;2024-02-23T15:14:24;20.40;47.90
45843;DHT22;31563;51.744;8.252;2024-02-23T15:16:53;20.40;48.40
45843;DHT22;31563;51.744;8.252;2024-02-23T15:19:21;20.40;48.00
45843;DHT22;31563;51.744;8.252;2024-02-23T15:21:50;20.40;48.30
45843;DHT22;31563;51.744;8.252;2024-02-23T15:24:20;20.30;48.90
45843;DHT22;31563;51.744;8.252;2024-02-23T15:26:51;20.30;48.80
45843;DHT22;31563;51.744;8.252;2024-02-23T15:29:19;20.20;48.90
45843;DHT22;31563;51.744;8.252;2024-02-23T15:31:47;20.10;48.80
45843;DHT22;31563;51.744;8.252;2024-02-23T15:34:16;20.10;48.80
45843;DHT22;31563;51.744;8.252;2024-02-23T15:36:44;20.20;49.50
45843;DHT22;31563;51.744;8.252;2024-02-23T15:39:12;20.20;49.70
45843;DHT22;31563;51.744;8.252;2024-02-23T15:41:41;20.20;49.50